sensor_id;sensor_type;location;lat;lon;timestamp;temperature;humidity
71206;SHT31;58935;54.498;18.544;2023-07-09T00:02:01;15.61;75.20
71206;SHT31;58935;54.498;18.544;2023-07-09T00:04:28;15.61;75.24
71206;SHT31;58935;54.498;18.544;2023-07-09T00:06:54;15.63;75.27
71206;SHT31;58935;54.498;18.544;2023-07-09T00:09:24;15.63;75.30
71206;SHT31;58935;54.498;18.544;2023-07-09T00:11:50;15.65;75.31
71206;SHT31;58935;54.498;18.544;2023-07-09T00:14:17;15.65;75.28
71206;SHT31;58935;54.498;18.544;2023-07-09T00:16:44;15.64;75.28
71206;SHT31;58935;54.498;18.544;2023-07-09T00:19:14;15.63;75.32
71206;SHT31;58935;54.498;18.544;2023-07-09T00:21:43;15.63;75.41
71206;SHT31;58935;54.498;18.544;2023-07-09T00:24:11;15.63;75.44
71206;SHT31;58935;54.498;18.544;2023-07-09T00:26:38;15.62;75.49
71206;SHT31;58935;54.498;18.544;2023-07-09T00:29:11;15.61;75.52
71206;SHT31;58935;54.498;18.544;2023-07-09T00:31:38;15.58;75.54
71206;SHT31;58935;54.498;18.544;2023-07-09T00:34:09;15.58;75.65
71206;SHT31;58935;54.498;18.544;2023-07-09T00:36:38;15.57;75.76
71206;SHT31;58935;54.498;18.544;2023-07-09T00:39:04;15.57;75.90
71206;SHT31;58935;54.498;18.544;2023-07-09T00:41:36;15.54;76.03
71206;SHT31;58935;54.498;18.544;2023-07-09T00:49:59;15.49;76.27
71206;SHT31;58935;54.498;18.544;2023-07-09T00:52:38;15.49;76.40
71206;SHT31;58935;54.498;18.544;2023-07-09T00:55:15;15.48;76.52
71206;SHT31;58935;54.498;18.544;2023-07-09T00:57:48;15.49;76.60
71206;SHT31;58935;54.498;18.544;2023-07-09T01:00:21;15.48;76.73
71206;SHT31;58935;54.498;18.544;2023-07-09T01:02:54;15.48;76.94
71206;SHT31;58935;54.498;18.544;2023-07-09T01:05:20;15.47;77.00
71206;SHT31;58935;54.498;18.544;2023-07-09T01:07:46;15.47;77.09
71206;SHT31;58935;54.498;18.544;2023-07-09T01:10:14;15.47;77.29
71206;SHT31;58935;54.498;18.544;2023-07-09T01:12:42;15.47;77.63
71206;SHT31;58935;54.498;18.544;2023-07-09T01:15:10;15.48;78.18
71206;SHT31;58935;54.498;18.544;2023-07-09T01:17:36;15.48;78.52
71206;SHT31;58935;54.498;18.544;2023-07-09T01:20:02;15.48;78.70
71206;SHT31;58935;54.498;18.544;2023-07-09T01:22:28;15.48;78.72
71206;SHT31;58935;54.498;18.544;2023-07-09T01:24:59;15.50;78.66
71206;SHT31;58935;54.498;18.544;2023-07-09T01:27:30;15.52;78.46
71206;SHT31;58935;54.498;18.544;2023-07-09T01:30:00;15.50;78.29
71206;SHT31;58935;54.498;18.544;2023-07-09T01:32:31;15.48;78.10
71206;SHT31;58935;54.498;18.544;2023-07-09T01:34:59;15.45;78.07
71206;SHT31;58935;54.498;18.544;2023-07-09T01:37:32;15.43;78.11
71206;SHT31;58935;54.498;18.544;2023-07-09T01:40:00;15.38;78.10
71206;SHT31;58935;54.498;18.544;2023-07-09T01:42:26;15.34;78.16
71206;SHT31;58935;54.498;18.544;2023-07-09T01:44:53;15.31;78.36
71206;SHT31;58935;54.498;18.544;2023-07-09T01:47:20;15.32;78.62
71206;SHT31;58935;54.498;18.544;2023-07-09T01:49:48;15.34;78.94
71206;SHT31;58935;54.498;18.544;2023-07-09T01:52:15;15.37;78.91
71206;SHT31;58935;54.498;18.544;2023-07-09T01:54:44;15.42;78.96
71206;SHT31;58935;54.498;18.544;2023-07-09T01:57:21;15.47;79.07
71206;SHT31;58935;54.498;18.544;2023-07-09T01:59:50;15.50;79.03
71206;SHT31;58935;54.498;18.544;2023-07-09T02:02:18;15.53;79.01
71206;SHT31;58935;54.498;18.544;2023-07-09T02:04:45;15.56;79.19
71206;SHT31;58935;54.498;18.544;2023-07-09T02:07:13;15.59;79.28
71206;SHT31;58935;54.498;18.544;2023-07-09T02:09:39;15.63;79.48
71206;SHT31;58935;54.498;18.544;2023-07-09T02:12:05;15.65;79.61
71206;SHT31;58935;54.498;18.544;2023-07-09T02:14:32;15.68;79.72
71206;SHT31;58935;54.498;18.544;2023-07-09T02:16:57;15.71;79.73
71206;SHT31;58935;54.498;18.544;2023-07-09T02:19:23;15.73;79.70
71206;SHT31;58935;54.498;18.544;2023-07-09T02:21:48;15.77;79.71
71206;SHT31;58935;54.498;18.544;2023-07-09T02:24:13;15.79;79.63
71206;SHT31;58935;54.498;18.544;2023-07-09T02:26:38;15.81;79.60
71206;SHT31;58935;54.498;18.544;2023-07-09T02:29:04;15.80;79.66
71206;SHT31;58935;54.498;18.544;2023-07-09T02:31:30;15.82;79.70
71206;SHT31;58935;54.498;18.544;2023-07-09T02:33:56;15.82;79.77
71206;SHT31;58935;54.498;18.544;2023-07-09T02:36:22;15.83;79.80
71206;SHT31;58935;54.498;18.544;2023-07-09T02:38:49;15.83;79.86
71206;SHT31;58935;54.498;18.544;2023-07-09T02:41:15;15.83;79.94
71206;SHT31;58935;54.498;18.544;2023-07-09T02:43:40;15.85;79.95
71206;SHT31;58935;54.498;18.544;2023-07-09T02:46:06;15.85;79.80
71206;SHT31;58935;54.498;18.544;2023-07-09T02:48:31;15.83;79.64
71206;SHT31;58935;54.498;18.544;2023-07-09T02:50:56;15.82;79.73
71206;SHT31;58935;54.498;18.544;2023-07-09T02:53:22;15.83;79.83
71206;SHT31;58935;54.498;18.544;2023-07-09T02:55:47;15.83;79.96
71206;SHT31;58935;54.498;18.544;2023-07-09T02:58:12;15.84;79.93
71206;SHT31;58935;54.498;18.544;2023-07-09T03:00:38;15.86;80.02
71206;SHT31;58935;54.498;18.544;2023-07-09T03:03:03;15.90;80.10
71206;SHT31;58935;54.498;18.544;2023-07-09T03:05:28;15.95;80.10
71206;SHT31;58935;54.498;18.544;2023-07-09T03:07:54;15.98;79.89
71206;SHT31;58935;54.498;18.544;2023-07-09T03:10:19;16.00;79.80
71206;SHT31;58935;54.498;18.544;2023-07-09T03:12:44;16.02;79.86
71206;SHT31;58935;54.498;18.544;2023-07-09T03:15:11;16.07;79.94
71206;SHT31;58935;54.498;18.544;2023-07-09T03:17:37;16.11;80.00
71206;SHT31;58935;54.498;18.544;2023-07-09T03:20:03;16.22;80.02
71206;SHT31;58935;54.498;18.544;2023-07-09T03:22:30;16.41;79.82
71206;SHT31;58935;54.498;18.544;2023-07-09T03:24:55;16.47;79.67
71206;SHT31;58935;54.498;18.544;2023-07-09T03:27:21;16.51;79.62
71206;SHT31;58935;54.498;18.544;2023-07-09T03:29:46;16.54;79.70
71206;SHT31;58935;54.498;18.544;2023-07-09T03:32:11;16.54;79.52
71206;SHT31;58935;54.498;18.544;2023-07-09T03:34:37;16.53;79.50
71206;SHT31;58935;54.498;18.544;2023-07-09T03:37:02;16.54;79.49
71206;SHT31;58935;54.498;18.544;2023-07-09T03:39:28;16.55;79.51
71206;SHT31;58935;54.498;18.544;2023-07-09T03:41:53;16.57;79.55
71206;SHT31;58935;54.498;18.544;2023-07-09T03:44:18;16.58;79.35
71206;SHT31;58935;54.498;18.544;2023-07-09T03:46:44;16.59;79.22
71206;SHT31;58935;54.498;18.544;2023-07-09T03:49:09;16.60;79.02
71206;SHT31;58935;54.498;18.544;2023-07-09T03:51:34;16.61;78.97
71206;SHT31;58935;54.498;18.544;2023-07-09T03:54:00;16.64;78.89
71206;SHT31;58935;54.498;18.544;2023-07-09T03:56:25;16.68;78.89
71206;SHT31;58935;54.498;18.544;2023-07-09T03:58:50;16.73;78.81
71206;SHT31;58935;54.498;18.544;2023-07-09T04:01:16;16.77;78.69
71206;SHT31;58935;54.498;18.544;2023-07-09T04:03:42;16.83;78.59
71206;SHT31;58935;54.498;18.544;2023-07-09T04:06:07;16.88;78.61
71206;SHT31;58935;54.498;18.544;2023-07-09T04:08:32;16.93;78.60
71206;SHT31;58935;54.498;18.544;2023-07-09T04:11:01;16.97;78.67
71206;SHT31;58935;54.498;18.544;2023-07-09T04:13:27;17.00;78.69
71206;SHT31;58935;54.498;18.544;2023-07-09T04:15:54;17.03;78.65
71206;SHT31;58935;54.498;18.544;2023-07-09T04:18:21;17.05;78.53
71206;SHT31;58935;54.498;18.544;2023-07-09T04:20:50;17.09;78.46
71206;SHT31;58935;54.498;18.544;2023-07-09T04:23:16;17.14;78.28
71206;SHT31;58935;54.498;18.544;2023-07-09T04:25:43;17.20;78.08
71206;SHT31;58935;54.498;18.544;2023-07-09T04:28:08;17.27;77.94
71206;SHT31;58935;54.498;18.544;2023-07-09T04:30:34;17.34;77.86
71206;SHT31;58935;54.498;18.544;2023-07-09T04:32:59;17.40;77.64
71206;SHT31;58935;54.498;18.544;2023-07-09T04:35:25;17.48;77.46
71206;SHT31;58935;54.498;18.544;2023-07-09T04:37:51;17.52;77.21
71206;SHT31;58935;54.498;18.544;2023-07-09T04:40:17;17.55;77.10
71206;SHT31;58935;54.498;18.544;2023-07-09T04:42:44;17.58;77.06
71206;SHT31;58935;54.498;18.544;2023-07-09T04:45:12;17.62;77.06
71206;SHT31;58935;54.498;18.544;2023-07-09T04:47:38;17.67;77.01
71206;SHT31;58935;54.498;18.544;2023-07-09T04:50:06;17.73;76.83
71206;SHT31;58935;54.498;18.544;2023-07-09T04:52:33;17.78;76.75
71206;SHT31;58935;54.498;18.544;2023-07-09T04:54:59;17.83;76.71
71206;SHT31;58935;54.498;18.544;2023-07-09T04:57:26;17.89;76.59
71206;SHT31;58935;54.498;18.544;2023-07-09T04:59:52;17.96;76.42
71206;SHT31;58935;54.498;18.544;2023-07-09T05:02:18;18.03;76.24
71206;SHT31;58935;54.498;18.544;2023-07-09T05:04:43;18.11;76.03
71206;SHT31;58935;54.498;18.544;2023-07-09T05:07:09;18.18;75.87
71206;SHT31;58935;54.498;18.544;2023-07-09T05:09:34;18.23;75.63
71206;SHT31;58935;54.498;18.544;2023-07-09T05:12:01;18.30;75.44
71206;SHT31;58935;54.498;18.544;2023-07-09T05:14:27;18.36;75.11
71206;SHT31;58935;54.498;18.544;2023-07-09T05:16:53;18.42;74.91
71206;SHT31;58935;54.498;18.544;2023-07-09T05:19:19;18.47;74.67
71206;SHT31;58935;54.498;18.544;2023-07-09T05:21:44;18.53;74.44
71206;SHT31;58935;54.498;18.544;2023-07-09T05:24:10;18.59;74.01
71206;SHT31;58935;54.498;18.544;2023-07-09T05:26:36;18.62;73.71
71206;SHT31;58935;54.498;18.544;2023-07-09T05:29:02;18.64;73.33
71206;SHT31;58935;54.498;18.544;2023-07-09T05:31:30;18.66;73.46
71206;SHT31;58935;54.498;18.544;2023-07-09T05:33:58;18.71;73.47
71206;SHT31;58935;54.498;18.544;2023-07-09T05:39:09;18.79;72.98
71206;SHT31;58935;54.498;18.544;2023-07-09T05:41:35;18.86;72.74
71206;SHT31;58935;54.498;18.544;2023-07-09T05:44:00;18.91;72.54
71206;SHT31;58935;54.498;18.544;2023-07-09T05:46:26;18.96;72.33
71206;SHT31;58935;54.498;18.544;2023-07-09T05:48:52;19.02;72.18
71206;SHT31;58935;54.498;18.544;2023-07-09T05:51:18;19.08;71.98
71206;SHT31;58935;54.498;18.544;2023-07-09T05:53:43;19.13;71.63
71206;SHT31;58935;54.498;18.544;2023-07-09T05:56:09;19.18;70.98
71206;SHT31;58935;54.498;18.544;2023-07-09T05:58:35;19.24;70.61
71206;SHT31;58935;54.498;18.544;2023-07-09T06:01:01;19.31;70.43
71206;SHT31;58935;54.498;18.544;2023-07-09T06:03:28;19.39;70.17
71206;SHT31;58935;54.498;18.544;2023-07-09T06:05:55;19.47;69.73
71206;SHT31;58935;54.498;18.544;2023-07-09T06:08:22;19.54;69.39
71206;SHT31;58935;54.498;18.544;2023-07-09T06:13:27;19.70;68.47
71206;SHT31;58935;54.498;18.544;2023-07-09T06:15:55;19.76;68.03
71206;SHT31;58935;54.498;18.544;2023-07-09T06:18:23;19.83;67.47
71206;SHT31;58935;54.498;18.544;2023-07-09T06:20:54;19.90;66.14
71206;SHT31;58935;54.498;18.544;2023-07-09T06:23:23;19.96;64.78
71206;SHT31;58935;54.498;18.544;2023-07-09T06:25:48;20.02;64.16
71206;SHT31;58935;54.498;18.544;2023-07-09T06:28:15;20.09;63.57
71206;SHT31;58935;54.498;18.544;2023-07-09T06:30:43;20.16;62.48
71206;SHT31;58935;54.498;18.544;2023-07-09T06:33:10;20.22;61.40
71206;SHT31;58935;54.498;18.544;2023-07-09T06:35:38;20.27;61.18
71206;SHT31;58935;54.498;18.544;2023-07-09T06:38:04;20.33;61.02
71206;SHT31;58935;54.498;18.544;2023-07-09T06:40:31;20.37;60.27
71206;SHT31;58935;54.498;18.544;2023-07-09T06:42:56;20.43;59.94
71206;SHT31;58935;54.498;18.544;2023-07-09T06:45:23;20.48;59.95
71206;SHT31;58935;54.498;18.544;2023-07-09T06:47:49;20.55;59.58
71206;SHT31;58935;54.498;18.544;2023-07-09T06:50:15;20.60;59.90
71206;SHT31;58935;54.498;18.544;2023-07-09T06:52:40;20.67;60.37
71206;SHT31;58935;54.498;18.544;2023-07-09T06:55:07;20.72;60.98
71206;SHT31;58935;54.498;18.544;2023-07-09T06:57:33;20.79;61.16
71206;SHT31;58935;54.498;18.544;2023-07-09T06:59:59;20.83;60.20
71206;SHT31;58935;54.498;18.544;2023-07-09T07:02:24;20.86;59.75
71206;SHT31;58935;54.498;18.544;2023-07-09T07:04:50;20.91;59.81
71206;SHT31;58935;54.498;18.544;2023-07-09T07:07:16;20.97;59.97
71206;SHT31;58935;54.498;18.544;2023-07-09T07:09:41;21.02;60.18
71206;SHT31;58935;54.498;18.544;2023-07-09T07:12:07;21.08;60.65
71206;SHT31;58935;54.498;18.544;2023-07-09T07:14:33;21.17;60.70
71206;SHT31;58935;54.498;18.544;2023-07-09T07:16:58;21.23;60.57
71206;SHT31;58935;54.498;18.544;2023-07-09T07:19:23;21.28;60.07
71206;SHT31;58935;54.498;18.544;2023-07-09T07:21:49;21.31;59.22
71206;SHT31;58935;54.498;18.544;2023-07-09T07:24:14;21.32;58.85
71206;SHT31;58935;54.498;18.544;2023-07-09T07:26:39;21.34;58.64
71206;SHT31;58935;54.498;18.544;2023-07-09T07:29:05;21.36;58.73
71206;SHT31;58935;54.498;18.544;2023-07-09T07:31:30;21.40;59.09
71206;SHT31;58935;54.498;18.544;2023-07-09T07:33:56;21.45;58.65
71206;SHT31;58935;54.498;18.544;2023-07-09T07:36:21;21.48;58.54
71206;SHT31;58935;54.498;18.544;2023-07-09T07:38:46;21.52;59.19
71206;SHT31;58935;54.498;18.544;2023-07-09T07:41:12;21.58;59.00
71206;SHT31;58935;54.498;18.544;2023-07-09T07:43:37;21.64;59.35
71206;SHT31;58935;54.498;18.544;2023-07-09T07:46:02;21.70;59.21
71206;SHT31;58935;54.498;18.544;2023-07-09T07:48:28;21.75;58.72
71206;SHT31;58935;54.498;18.544;2023-07-09T07:51:00;21.79;58.07
71206;SHT31;58935;54.498;18.544;2023-07-09T07:53:28;21.82;57.64
71206;SHT31;58935;54.498;18.544;2023-07-09T07:55:56;21.85;57.01
71206;SHT31;58935;54.498;18.544;2023-07-09T07:58:22;21.86;56.57
71206;SHT31;58935;54.498;18.544;2023-07-09T08:00:48;21.83;55.70
71206;SHT31;58935;54.498;18.544;2023-07-09T08:03:14;21.80;55.88
71206;SHT31;58935;54.498;18.544;2023-07-09T08:05:39;21.77;55.24
71206;SHT31;58935;54.498;18.544;2023-07-09T08:08:04;21.74;55.98
71206;SHT31;58935;54.498;18.544;2023-07-09T08:10:30;21.76;55.49
71206;SHT31;58935;54.498;18.544;2023-07-09T08:12:55;21.76;54.85
71206;SHT31;58935;54.498;18.544;2023-07-09T08:15:23;21.74;54.82
71206;SHT31;58935;54.498;18.544;2023-07-09T08:17:49;21.77;55.99
71206;SHT31;58935;54.498;18.544;2023-07-09T08:20:14;21.82;55.74
71206;SHT31;58935;54.498;18.544;2023-07-09T08:22:40;21.89;55.61
71206;SHT31;58935;54.498;18.544;2023-07-09T08:25:06;21.91;55.05
71206;SHT31;58935;54.498;18.544;2023-07-09T08:27:32;21.95;55.52
71206;SHT31;58935;54.498;18.544;2023-07-09T08:29:57;21.98;55.12
71206;SHT31;58935;54.498;18.544;2023-07-09T08:32:22;22.01;54.42
71206;SHT31;58935;54.498;18.544;2023-07-09T08:34:48;22.02;54.33
71206;SHT31;58935;54.498;18.544;2023-07-09T08:37:13;22.05;53.85
71206;SHT31;58935;54.498;18.544;2023-07-09T08:39:38;22.08;53.76
71206;SHT31;58935;54.498;18.544;2023-07-09T08:42:05;22.13;53.80
71206;SHT31;58935;54.498;18.544;2023-07-09T08:47:47;22.19;53.68
71206;SHT31;58935;54.498;18.544;2023-07-09T08:53:19;22.29;53.02
71206;SHT31;58935;54.498;18.544;2023-07-09T08:55:53;22.32;53.23
71206;SHT31;58935;54.498;18.544;2023-07-09T08:58:23;22.38;53.41
71206;SHT31;58935;54.498;18.544;2023-07-09T09:00:55;22.44;53.41
71206;SHT31;58935;54.498;18.544;2023-07-09T09:03:34;22.52;53.29
71206;SHT31;58935;54.498;18.544;2023-07-09T09:11:57;22.63;52.85
71206;SHT31;58935;54.498;18.544;2023-07-09T09:14:52;22.66;52.70
71206;SHT31;58935;54.498;18.544;2023-07-09T09:17:24;22.67;53.11
71206;SHT31;58935;54.498;18.544;2023-07-09T09:19:55;22.71;52.97
71206;SHT31;58935;54.498;18.544;2023-07-09T09:22:29;22.69;52.45
71206;SHT31;58935;54.498;18.544;2023-07-09T09:27:55;22.65;52.16
71206;SHT31;58935;54.498;18.544;2023-07-09T09:30:22;22.62;52.83
71206;SHT31;58935;54.498;18.544;2023-07-09T09:32:56;22.65;53.17
71206;SHT31;58935;54.498;18.544;2023-07-09T09:35:36;22.65;52.64
71206;SHT31;58935;54.498;18.544;2023-07-09T09:38:09;22.63;52.31
71206;SHT31;58935;54.498;18.544;2023-07-09T09:40:40;22.61;52.22
71206;SHT31;58935;54.498;18.544;2023-07-09T09:43:11;22.51;51.86
71206;SHT31;58935;54.498;18.544;2023-07-09T09:45:44;22.35;51.78
71206;SHT31;58935;54.498;18.544;2023-07-09T09:48:18;22.20;52.30
71206;SHT31;58935;54.498;18.544;2023-07-09T09:50:54;22.18;53.51
71206;SHT31;58935;54.498;18.544;2023-07-09T09:53:25;22.24;53.58
71206;SHT31;58935;54.498;18.544;2023-07-09T09:55:54;22.28;52.78
71206;SHT31;58935;54.498;18.544;2023-07-09T09:58:27;22.29;52.47
71206;SHT31;58935;54.498;18.544;2023-07-09T10:00:55;22.31;53.69
71206;SHT31;58935;54.498;18.544;2023-07-09T10:03:32;22.36;54.49
71206;SHT31;58935;54.498;18.544;2023-07-09T10:06:05;22.41;53.82
71206;SHT31;58935;54.498;18.544;2023-07-09T10:11:32;22.53;51.68
71206;SHT31;58935;54.498;18.544;2023-07-09T10:14:22;22.57;52.58
71206;SHT31;58935;54.498;18.544;2023-07-09T10:17:18;22.55;52.18
71206;SHT31;58935;54.498;18.544;2023-07-09T10:20:15;22.52;53.16
71206;SHT31;58935;54.498;18.544;2023-07-09T10:22:53;22.59;53.61
71206;SHT31;58935;54.498;18.544;2023-07-09T10:25:33;22.68;52.98
71206;SHT31;58935;54.498;18.544;2023-07-09T10:31:17;22.72;49.34
71206;SHT31;58935;54.498;18.544;2023-07-09T10:34:06;22.72;51.62
71206;SHT31;58935;54.498;18.544;2023-07-09T10:37:00;22.79;50.97
71206;SHT31;58935;54.498;18.544;2023-07-09T10:39:49;22.81;50.75
71206;SHT31;58935;54.498;18.544;2023-07-09T10:42:25;22.82;50.01
71206;SHT31;58935;54.498;18.544;2023-07-09T10:45:04;22.82;49.49
71206;SHT31;58935;54.498;18.544;2023-07-09T10:47:41;22.79;49.73
71206;SHT31;58935;54.498;18.544;2023-07-09T10:50:15;22.82;50.21
71206;SHT31;58935;54.498;18.544;2023-07-09T10:52:57;22.84;49.47
71206;SHT31;58935;54.498;18.544;2023-07-09T11:01:14;22.88;49.92
71206;SHT31;58935;54.498;18.544;2023-07-09T11:03:47;22.87;46.90
71206;SHT31;58935;54.498;18.544;2023-07-09T11:06:19;22.83;48.52
71206;SHT31;58935;54.498;18.544;2023-07-09T11:08:59;22.86;48.39
71206;SHT31;58935;54.498;18.544;2023-07-09T11:11:31;22.89;48.79
71206;SHT31;58935;54.498;18.544;2023-07-09T11:17:03;23.10;47.56
71206;SHT31;58935;54.498;18.544;2023-07-09T11:19:41;23.14;47.03
71206;SHT31;58935;54.498;18.544;2023-07-09T11:22:14;23.19;48.24
71206;SHT31;58935;54.498;18.544;2023-07-09T11:25:04;23.31;45.90
71206;SHT31;58935;54.498;18.544;2023-07-09T11:27:45;23.37;44.54
71206;SHT31;58935;54.498;18.544;2023-07-09T11:30:18;23.43;45.64
71206;SHT31;58935;54.498;18.544;2023-07-09T11:32:52;23.47;44.29
71206;SHT31;58935;54.498;18.544;2023-07-09T11:35:23;23.48;45.45
71206;SHT31;58935;54.498;18.544;2023-07-09T11:37:54;23.48;43.43
71206;SHT31;58935;54.498;18.544;2023-07-09T11:40:23;23.51;43.41
71206;SHT31;58935;54.498;18.544;2023-07-09T11:42:56;23.57;44.51
71206;SHT31;58935;54.498;18.544;2023-07-09T11:48:09;23.83;44.58
71206;SHT31;58935;54.498;18.544;2023-07-09T11:50:51;23.96;44.65
71206;SHT31;58935;54.498;18.544;2023-07-09T11:53:24;23.99;46.17
71206;SHT31;58935;54.498;18.544;2023-07-09T11:56:01;24.06;46.29
71206;SHT31;58935;54.498;18.544;2023-07-09T11:58:27;24.09;46.21
71206;SHT31;58935;54.498;18.544;2023-07-09T12:00:56;24.09;46.40
71206;SHT31;58935;54.498;18.544;2023-07-09T12:03:24;24.03;46.54
71206;SHT31;58935;54.498;18.544;2023-07-09T12:06:00;24.00;46.57
71206;SHT31;58935;54.498;18.544;2023-07-09T12:08:38;24.01;45.76
71206;SHT31;58935;54.498;18.544;2023-07-09T12:11:18;24.07;46.93
71206;SHT31;58935;54.498;18.544;2023-07-09T12:14:03;24.15;46.96
71206;SHT31;58935;54.498;18.544;2023-07-09T12:16:36;24.17;46.82
71206;SHT31;58935;54.498;18.544;2023-07-09T12:19:05;24.22;45.08
71206;SHT31;58935;54.498;18.544;2023-07-09T12:21:34;24.25;44.58
71206;SHT31;58935;54.498;18.544;2023-07-09T12:24:12;24.27;44.36
71206;SHT31;58935;54.498;18.544;2023-07-09T12:26:51;24.24;44.82
71206;SHT31;58935;54.498;18.544;2023-07-09T12:29:18;24.23;47.46
71206;SHT31;58935;54.498;18.544;2023-07-09T12:31:44;24.22;49.96
71206;SHT31;58935;54.498;18.544;2023-07-09T12:34:11;24.18;52.33
71206;SHT31;58935;54.498;18.544;2023-07-09T12:36:41;24.15;49.28
71206;SHT31;58935;54.498;18.544;2023-07-09T12:39:14;24.16;48.16
71206;SHT31;58935;54.498;18.544;2023-07-09T12:41:45;24.12;47.29
71206;SHT31;58935;54.498;18.544;2023-07-09T12:44:15;24.07;49.11
71206;SHT31;58935;54.498;18.544;2023-07-09T12:46:47;24.04;48.71
71206;SHT31;58935;54.498;18.544;2023-07-09T12:51:55;24.07;50.42
71206;SHT31;58935;54.498;18.544;2023-07-09T12:54:23;24.15;51.35
71206;SHT31;58935;54.498;18.544;2023-07-09T12:56:50;24.18;52.81
71206;SHT31;58935;54.498;18.544;2023-07-09T12:59:20;24.15;52.90
71206;SHT31;58935;54.498;18.544;2023-07-09T13:01:55;24.11;54.08
71206;SHT31;58935;54.498;18.544;2023-07-09T13:04:32;24.08;55.51
71206;SHT31;58935;54.498;18.544;2023-07-09T13:07:02;24.04;56.93
71206;SHT31;58935;54.498;18.544;2023-07-09T13:09:29;24.03;57.57
71206;SHT31;58935;54.498;18.544;2023-07-09T13:11:56;23.99;58.38
71206;SHT31;58935;54.498;18.544;2023-07-09T13:14:26;23.91;58.56
71206;SHT31;58935;54.498;18.544;2023-07-09T13:17:02;23.82;58.23
71206;SHT31;58935;54.498;18.544;2023-07-09T13:19:29;23.72;57.94
71206;SHT31;58935;54.498;18.544;2023-07-09T13:21:55;23.70;59.18
71206;SHT31;58935;54.498;18.544;2023-07-09T13:24:22;23.76;59.04
71206;SHT31;58935;54.498;18.544;2023-07-09T13:26:51;23.78;58.29
71206;SHT31;58935;54.498;18.544;2023-07-09T13:29:17;23.73;58.00
71206;SHT31;58935;54.498;18.544;2023-07-09T13:31:45;23.71;57.31
71206;SHT31;58935;54.498;18.544;2023-07-09T13:36:52;23.61;57.64
71206;SHT31;58935;54.498;18.544;2023-07-09T13:39:21;23.61;58.32
71206;SHT31;58935;54.498;18.544;2023-07-09T13:41:48;23.58;58.68
71206;SHT31;58935;54.498;18.544;2023-07-09T13:44:19;23.46;59.09
71206;SHT31;58935;54.498;18.544;2023-07-09T13:46:50;23.43;59.68
71206;SHT31;58935;54.498;18.544;2023-07-09T13:49:17;23.40;59.88
71206;SHT31;58935;54.498;18.544;2023-07-09T13:51:46;23.39;60.05
71206;SHT31;58935;54.498;18.544;2023-07-09T13:54:17;23.41;60.30
71206;SHT31;58935;54.498;18.544;2023-07-09T13:56:49;23.42;60.28
71206;SHT31;58935;54.498;18.544;2023-07-09T13:59:19;23.47;60.34
71206;SHT31;58935;54.498;18.544;2023-07-09T14:01:56;23.52;60.39
71206;SHT31;58935;54.498;18.544;2023-07-09T14:04:24;23.58;59.93
71206;SHT31;58935;54.498;18.544;2023-07-09T14:06:53;23.63;60.37
71206;SHT31;58935;54.498;18.544;2023-07-09T14:09:19;23.73;60.13
71206;SHT31;58935;54.498;18.544;2023-07-09T14:11:45;23.81;59.72
71206;SHT31;58935;54.498;18.544;2023-07-09T14:14:18;23.85;59.88
71206;SHT31;58935;54.498;18.544;2023-07-09T14:16:51;23.96;60.26
71206;SHT31;58935;54.498;18.544;2023-07-09T14:19:18;24.02;59.90
71206;SHT31;58935;54.498;18.544;2023-07-09T14:21:47;24.05;58.95
71206;SHT31;58935;54.498;18.544;2023-07-09T14:24:17;24.08;58.66
71206;SHT31;58935;54.498;18.544;2023-07-09T14:26:53;24.06;58.47
71206;SHT31;58935;54.498;18.544;2023-07-09T14:29:22;24.05;59.48
71206;SHT31;58935;54.498;18.544;2023-07-09T14:31:49;24.12;59.35
71206;SHT31;58935;54.498;18.544;2023-07-09T14:34:20;24.15;60.10
71206;SHT31;58935;54.498;18.544;2023-07-09T14:36:53;24.11;59.99
71206;SHT31;58935;54.498;18.544;2023-07-09T14:39:22;24.02;60.19
71206;SHT31;58935;54.498;18.544;2023-07-09T14:41:48;23.99;60.28
71206;SHT31;58935;54.498;18.544;2023-07-09T14:44:20;23.88;60.36
71206;SHT31;58935;54.498;18.544;2023-07-09T14:46:50;23.78;60.62
71206;SHT31;58935;54.498;18.544;2023-07-09T14:49:19;23.80;60.74
71206;SHT31;58935;54.498;18.544;2023-07-09T14:51:45;23.86;60.58
71206;SHT31;58935;54.498;18.544;2023-07-09T14:54:18;23.99;60.44
71206;SHT31;58935;54.498;18.544;2023-07-09T14:56:50;24.18;59.75
71206;SHT31;58935;54.498;18.544;2023-07-09T14:59:17;24.24;59.04
71206;SHT31;58935;54.498;18.544;2023-07-09T15:01:43;24.30;58.83
71206;SHT31;58935;54.498;18.544;2023-07-09T15:04:21;24.34;58.48
71206;SHT31;58935;54.498;18.544;2023-07-09T15:06:55;24.30;58.27
71206;SHT31;58935;54.498;18.544;2023-07-09T15:09:22;24.31;57.88
71206;SHT31;58935;54.498;18.544;2023-07-09T15:11:52;24.37;57.32
71206;SHT31;58935;54.498;18.544;2023-07-09T15:14:20;24.47;57.20
71206;SHT31;58935;54.498;18.544;2023-07-09T15:16:46;24.62;56.91
71206;SHT31;58935;54.498;18.544;2023-07-09T15:19:15;24.77;56.94
71206;SHT31;58935;54.498;18.544;2023-07-09T15:21:44;24.94;56.61
71206;SHT31;58935;54.498;18.544;2023-07-09T15:24:13;25.05;56.05
71206;SHT31;58935;54.498;18.544;2023-07-09T15:26:50;25.15;55.10
71206;SHT31;58935;54.498;18.544;2023-07-09T15:29:19;25.31;55.17
71206;SHT31;58935;54.498;18.544;2023-07-09T15:31:46;25.36;53.65
71206;SHT31;58935;54.498;18.544;2023-07-09T15:34:11;25.32;53.69
71206;SHT31;58935;54.498;18.544;2023-07-09T15:36:43;25.21;51.44
71206;SHT31;58935;54.498;18.544;2023-07-09T15:39:16;25.11;51.07
71206;SHT31;58935;54.498;18.544;2023-07-09T15:41:43;25.11;51.45
71206;SHT31;58935;54.498;18.544;2023-07-09T15:44:12;25.18;51.13
71206;SHT31;58935;54.498;18.544;2023-07-09T15:46:54;25.27;50.71
71206;SHT31;58935;54.498;18.544;2023-07-09T15:49:21;25.33;49.76
71206;SHT31;58935;54.498;18.544;2023-07-09T15:51:47;25.32;48.98
71206;SHT31;58935;54.498;18.544;2023-07-09T15:54:14;25.26;46.48
71206;SHT31;58935;54.498;18.544;2023-07-09T15:56:43;25.25;46.58
71206;SHT31;58935;54.498;18.544;2023-07-09T16:01:56;25.30;48.31
71206;SHT31;58935;54.498;18.544;2023-07-09T16:04:24;25.36;47.21
71206;SHT31;58935;54.498;18.544;2023-07-09T16:06:51;25.42;46.42
71206;SHT31;58935;54.498;18.544;2023-07-09T16:09:17;25.49;46.60
71206;SHT31;58935;54.498;18.544;2023-07-09T16:11:43;25.56;47.38
71206;SHT31;58935;54.498;18.544;2023-07-09T16:14:20;25.61;47.29
71206;SHT31;58935;54.498;18.544;2023-07-09T16:16:53;25.62;43.58
71206;SHT31;58935;54.498;18.544;2023-07-09T16:19:25;25.62;43.21